Shelter Island Heights, NY (11965)

12:37 AM EDT on July 08, 2015 (GMT -0400)
KNYSHELT2 | | Change Station
CLOSE
Current Station
Personal Weather Station
Location: Shelter Island Heights, NY
Elevation: 73 ft
Nearby Weather Stations

Elev 73 ft 41.07 °N, 72.36 °W | Updated 11 minutes ago

Partly Cloudy
Partly Cloudy
74.0 °F
Feels Like 71 °F
N
2.0
Wind Variable Wind from WSW

Today
High -- | Low -- °F
--% Chance of Precip.
Yesterday
High -- | Low -- °F
Precip. -- in
5:24 AM 8:23 PM
Waning Gibbous, 58% visible
Pressure 29.99 in
Visibility 7.0 miles
Clouds Overcast 600 ft
Heat Index 71 °F
Dew Point 72 °F
Humidity 94%
Rainfall 0.00 in
Snow Depth Not available.
UV 0 out of 12
Pollen 2.90 out of 12
Air Quality Not available.
Flu Activity Not available.
METAR KFOK 080353Z AUTO 23008KT 7SM OVC006 23/23 A2999 RMK AO2 SLP155 T02330228 TSNO

More Conditions Fewer Conditions

Pressure 29.99 in
Visibility 7.0 miles
Clouds Overcast 600 ft
Heat Index 71 °F
Dew Point 72 °F
Humidity 94%
Rainfall 0.00 in
Snow Depth Not available.
UV 0 out of 12
Pollen 2.90 out of 12
Air Quality Not available.
Flu Activity Not available.
METAR KFOK 080353Z AUTO 23008KT 7SM OVC006 23/23 A2999 RMK AO2 SLP155 T02330228 TSNO

More Conditions Fewer Conditions

10-Day Weather Forecast

×

Almanac

Astronomy

Jul. 08, 2015 Rise Set
Actual Time
Civil Twilight
Nautical Twilight
Astronomical Twilight
Moon
Length of Visible Light
Length of Day
Tomorrow will be .
, % of the Moon is Illuminated

Today's Extremes

State Highs State Lows

Community

WunderPhotos

Upload Photos

1,836,055 photos uploaded!

WunderBlogs® & News

Nearby

Air Quality

  Air Quality AQ Index Pollutant
Not available.

Snow Depth

Station Depth Elevation

Earthquake Activity

City Distance Mag. Time & Date
Minimum magnitude displayed is 2.5.

Coastal Water Temperatures

Place Temperature

Stations

Nearby Weather Stations

Station Location Temp. Windchill Dew Point Humidity Wind Precip. Elev Updated Type